createdAt,value
2023-02-08T00:01:23.952Z,-4.93
2023-02-08T00:03:53.004Z,-5.53
2023-02-08T00:06:21.023Z,-5.31
2023-02-08T00:08:48.972Z,-5.45
2023-02-08T00:11:17.349Z,-4.74
2023-02-08T00:13:45.365Z,-5.25
2023-02-08T00:16:14.791Z,-4.69
2023-02-08T00:18:43.190Z,-4.84
2023-02-08T00:21:13.950Z,-5.57
2023-02-08T00:23:42.686Z,-5.18
2023-02-08T00:26:11.113Z,-4.18
2023-02-08T00:28:39.450Z,-4.14
2023-02-08T00:31:07.814Z,-3.72
2023-02-08T00:33:36.002Z,-3.63
2023-02-08T00:36:06.337Z,-3.46
2023-02-08T00:38:35.336Z,-3.52
2023-02-08T00:41:03.719Z,-3.77
2023-02-08T00:43:31.772Z,-3.77
2023-02-08T00:46:00.771Z,-3.47
2023-02-08T00:48:29.118Z,-3.65
2023-02-08T00:51:06.809Z,-3.43
2023-02-08T00:53:40.836Z,-3.29
2023-02-08T00:56:10.172Z,-2.98
2023-02-08T00:58:39.078Z,-2.99
2023-02-08T01:01:08.011Z,-3.16
2023-02-08T01:03:37.449Z,-3.00
2023-02-08T01:06:08.355Z,-2.56
2023-02-08T01:08:36.601Z,-2.67
2023-02-08T01:11:14.806Z,-2.55
2023-02-08T01:13:43.104Z,-2.49
2023-02-08T01:16:15.103Z,-2.35
2023-02-08T01:18:45.318Z,-2.34
2023-02-08T01:21:15.816Z,-2.43
2023-02-08T01:23:45.158Z,-2.30
2023-02-08T01:26:14.353Z,-2.65
2023-02-08T01:28:42.888Z,-2.11
2023-02-08T01:31:15.668Z,-2.01
2023-02-08T01:33:43.686Z,-1.72
2023-02-08T01:36:12.580Z,-1.91
2023-02-08T01:38:43.130Z,-1.27
2023-02-08T01:41:20.095Z,-1.44
2023-02-08T01:44:01.569Z,-1.01
2023-02-08T01:46:33.965Z,-1.33
2023-02-08T01:49:29.398Z,-1.39
2023-02-08T01:52:10.828Z,-1.29
2023-02-08T01:54:43.268Z,-0.97
2023-02-08T01:57:12.163Z,-1.02
2023-02-08T01:59:44.864Z,-0.78
2023-02-08T02:02:15.529Z,-1.30
2023-02-08T02:04:44.434Z,-0.88
2023-02-08T02:07:13.104Z,-0.89
2023-02-08T02:09:59.472Z,-0.77
2023-02-08T02:12:28.519Z,-1.01
2023-02-08T02:14:56.613Z,-0.99
2023-02-08T02:17:24.948Z,-0.90
2023-02-08T02:20:18.927Z,-1.02
2023-02-08T02:23:11.770Z,-0.91
2023-02-08T02:26:17.170Z,-0.28
2023-02-08T02:29:16.432Z,-0.07
2023-02-08T02:32:06.209Z,-0.06
2023-02-08T02:34:54.085Z,-0.86
2023-02-08T02:37:40.250Z,-0.44
2023-02-08T02:40:14.182Z,-0.63
2023-02-08T02:43:07.627Z,-1.09
2023-02-08T02:45:45.688Z,-0.98
2023-02-08T02:48:15.183Z,-1.08
2023-02-08T02:50:55.527Z,-0.35
2023-02-08T02:53:38.296Z,-0.23
2023-02-08T02:56:11.241Z,-0.98
2023-02-08T02:58:40.534Z,-0.57
2023-02-08T03:01:08.909Z,-0.58
2023-02-08T03:03:36.908Z,-0.51
2023-02-08T03:06:12.949Z,-0.30
2023-02-08T03:09:09.169Z,-0.18
2023-02-08T03:11:37.552Z,0.02
2023-02-08T03:14:43.179Z,-0.18
2023-02-08T03:17:46.189Z,0.22
2023-02-08T03:20:19.093Z,-0.07
2023-02-08T03:23:10.403Z,0.16
2023-02-08T03:25:52.229Z,0.05
2023-02-08T03:28:31.237Z,0.22
2023-02-08T03:31:07.867Z,0.24
2023-02-08T03:33:48.400Z,0.24
2023-02-08T03:36:59.994Z,0.42
2023-02-08T03:39:29.339Z,0.23
2023-02-08T03:42:00.783Z,0.26
2023-02-08T03:44:35.779Z,-0.50
2023-02-08T03:47:07.000Z,0.03
2023-02-08T03:49:36.853Z,-0.17
2023-02-08T03:52:07.407Z,-0.18
2023-02-08T03:54:54.490Z,-0.77
2023-02-08T03:57:35.642Z,-0.24
2023-02-08T04:00:10.149Z,-0.16
2023-02-08T04:02:45.508Z,-0.69
2023-02-08T04:05:14.224Z,-0.36
2023-02-08T04:07:42.196Z,-0.05
2023-02-08T04:10:10.252Z,0.26
2023-02-08T04:12:38.654Z,0.15
2023-02-08T04:15:07.003Z,0.52
2023-02-08T04:17:34.955Z,0.57
2023-02-08T04:20:03.366Z,0.64
2023-02-08T04:22:31.344Z,0.25
2023-02-08T04:24:59.708Z,0.43
2023-02-08T04:27:27.942Z,0.44
2023-02-08T04:29:55.845Z,0.51
2023-02-08T04:32:23.748Z,-0.22
2023-02-08T04:34:52.065Z,-0.04
2023-02-08T04:37:20.086Z,0.08
2023-02-08T04:39:48.066Z,0.51
2023-02-08T04:42:16.687Z,0.27
2023-02-08T04:44:44.692Z,0.04
2023-02-08T04:47:12.600Z,0.10
2023-02-08T04:49:40.861Z,0.38
2023-02-08T04:52:08.750Z,0.54
2023-02-08T04:54:36.653Z,0.68
2023-02-08T04:57:05.026Z,0.93
2023-02-08T04:59:32.916Z,0.53
2023-02-08T05:02:00.787Z,0.50
2023-02-08T05:04:30.875Z,0.78
2023-02-08T05:06:59.070Z,1.19
2023-02-08T05:09:27.050Z,0.92
2023-02-08T05:11:55.277Z,1.26
2023-02-08T05:14:23.340Z,1.11
2023-02-08T05:16:51.298Z,0.84
2023-02-08T05:19:19.507Z,0.82
2023-02-08T05:21:47.538Z,1.12
2023-02-08T05:24:15.586Z,0.74
2023-02-08T05:26:43.895Z,0.93
2023-02-08T05:29:11.799Z,0.94
2023-02-08T05:31:39.891Z,0.98
2023-02-08T05:34:08.274Z,0.61
2023-02-08T05:36:36.272Z,0.91
2023-02-08T05:39:04.831Z,1.21
2023-02-08T05:41:33.403Z,0.59
2023-02-08T05:44:01.313Z,0.77
2023-02-08T05:46:29.406Z,0.43
2023-02-08T05:48:57.920Z,0.71
2023-02-08T05:51:25.867Z,0.44
2023-02-08T05:53:53.849Z,0.88
2023-02-08T05:56:22.138Z,0.86
2023-02-08T05:58:50.158Z,0.78
2023-02-08T06:01:18.434Z,0.54
2023-02-08T06:03:46.790Z,0.33
2023-02-08T06:06:14.710Z,0.33
2023-02-08T06:08:42.796Z,0.38
2023-02-08T06:11:11.086Z,0.21
2023-02-08T06:13:41.998Z,0.04
2023-02-08T06:16:10.384Z,0.06
2023-02-08T06:18:38.547Z,-0.09
2023-02-08T06:21:06.833Z,0.22
2023-02-08T06:23:35.188Z,0.11
2023-02-08T06:26:03.161Z,0.16
2023-02-08T06:28:31.180Z,-0.38
2023-02-08T06:30:59.794Z,-0.16
2023-02-08T06:33:27.842Z,-0.22
2023-02-08T06:35:55.894Z,-0.36
2023-02-08T06:38:24.282Z,-0.12
2023-02-08T06:40:52.308Z,-0.04
2023-02-08T06:43:20.501Z,-0.80
2023-02-08T06:45:49.062Z,-0.11
2023-02-08T06:48:17.152Z,-0.48
2023-02-08T06:50:45.125Z,-0.50
2023-02-08T06:53:13.533Z,-0.62
2023-02-08T06:55:41.504Z,0.02
2023-02-08T06:58:10.035Z,0.05
2023-02-08T07:00:39.582Z,0.69
2023-02-08T07:03:07.728Z,1.10
2023-02-08T07:05:36.206Z,1.60
2023-02-08T07:08:05.409Z,1.83
2023-02-08T07:10:33.995Z,2.40
2023-02-08T07:13:04.913Z,1.91
2023-02-08T07:15:33.406Z,1.88
2023-02-08T07:18:01.651Z,2.02
2023-02-08T07:20:30.327Z,2.14
2023-02-08T07:22:59.616Z,2.59
2023-02-08T07:25:27.593Z,2.04
2023-02-08T07:27:55.608Z,2.61
2023-02-08T07:30:23.898Z,3.47
2023-02-08T07:32:51.887Z,2.51
2023-02-08T07:35:19.817Z,3.67
2023-02-08T07:37:48.185Z,4.15
2023-02-08T07:40:16.224Z,3.34
2023-02-08T07:42:44.220Z,4.83
2023-02-08T07:45:13.051Z,4.57
2023-02-08T07:47:41.192Z,4.20
2023-02-08T07:50:09.608Z,4.79
2023-02-08T07:52:37.963Z,4.85
2023-02-08T07:55:06.196Z,5.42
2023-02-08T07:57:34.197Z,4.60
2023-02-08T08:00:02.850Z,4.69
2023-02-08T08:02:39.981Z,4.37
2023-02-08T08:05:09.270Z,4.42
2023-02-08T08:07:37.635Z,4.06
2023-02-08T08:10:05.960Z,4.35
2023-02-08T08:12:34.301Z,4.06
2023-02-08T08:15:02.223Z,3.84
2023-02-08T08:17:30.410Z,4.06
2023-02-08T08:19:58.789Z,4.30
2023-02-08T08:22:28.944Z,4.62
2023-02-08T08:24:58.498Z,4.63
2023-02-08T08:27:26.811Z,5.03
2023-02-08T08:29:54.912Z,5.25
2023-02-08T08:32:23.275Z,5.32
2023-02-08T08:34:51.820Z,5.07
2023-02-08T08:37:19.668Z,5.36
2023-02-08T08:39:49.250Z,5.70
2023-02-08T08:42:17.851Z,6.49
2023-02-08T08:44:45.867Z,6.80
2023-02-08T08:47:14.007Z,6.92
2023-02-08T08:49:43.977Z,7.20
2023-02-08T08:52:12.778Z,6.28
2023-02-08T08:54:42.299Z,6.47
2023-02-08T08:57:10.568Z,7.33
2023-02-08T08:59:38.536Z,7.51
2023-02-08T09:02:06.761Z,7.46
2023-02-08T09:04:35.101Z,8.21
2023-02-08T09:07:03.118Z,8.41
2023-02-08T09:09:31.067Z,8.92
2023-02-08T09:11:59.366Z,8.32
2023-02-08T09:14:29.321Z,8.40
2023-02-08T09:16:57.280Z,8.52
2023-02-08T09:19:25.686Z,8.96
2023-02-08T09:21:53.729Z,8.83
2023-02-08T09:24:21.821Z,10.57
2023-02-08T09:26:50.346Z,10.39
2023-02-08T09:29:18.500Z,9.71
2023-02-08T09:31:46.636Z,10.35
2023-02-08T09:34:15.122Z,10.20
2023-02-08T09:36:44.279Z,9.01
2023-02-08T09:39:16.355Z,8.16
2023-02-08T09:42:03.491Z,7.58
2023-02-08T09:45:16.093Z,7.59
2023-02-08T09:47:59.508Z,8.75
2023-02-08T09:50:34.358Z,8.66
2023-02-08T09:53:34.506Z,8.43
2023-02-08T09:56:07.237Z,9.88
2023-02-08T09:58:43.692Z,10.87
2023-02-08T10:01:24.163Z,11.58
2023-02-08T10:03:57.296Z,10.49
2023-02-08T10:06:25.502Z,10.78
2023-02-08T10:08:54.577Z,11.54
2023-02-08T10:11:40.685Z,11.77
2023-02-08T10:14:44.702Z,11.84
2023-02-08T10:17:25.517Z,11.88
2023-02-08T10:20:26.427Z,11.91
2023-02-08T10:23:49.698Z,11.98
2023-02-08T10:26:35.386Z,12.17
2023-02-08T10:29:24.915Z,12.77
2023-02-08T10:31:59.571Z,12.00
2023-02-08T10:34:34.530Z,12.17
2023-02-08T10:37:17.878Z,13.23
2023-02-08T10:39:48.393Z,13.04
2023-02-08T10:42:19.607Z,12.89
2023-02-08T10:44:59.486Z,13.20
2023-02-08T10:47:36.600Z,13.17
2023-02-08T10:50:21.877Z,13.09
2023-02-08T10:52:50.329Z,13.09
2023-02-08T10:55:21.536Z,13.24
2023-02-08T10:57:52.657Z,13.54
2023-02-08T11:00:30.370Z,13.05
2023-02-08T11:03:03.435Z,13.22
2023-02-08T11:05:35.813Z,11.76
2023-02-08T11:08:23.459Z,11.33
2023-02-08T11:11:04.661Z,11.17
2023-02-08T11:13:40.902Z,8.70
2023-02-08T11:16:14.726Z,8.86
2023-02-08T11:18:52.481Z,8.88
2023-02-08T11:21:26.573Z,10.05
2023-02-08T11:23:56.282Z,10.42
2023-02-08T11:26:37.757Z,10.23
2023-02-08T11:29:18.393Z,10.24
2023-02-08T11:32:03.834Z,10.71
2023-02-08T11:34:39.010Z,9.16
2023-02-08T11:37:26.814Z,8.78
2023-02-08T11:40:00.575Z,9.92
2023-02-08T11:42:36.660Z,11.08
2023-02-08T11:45:05.603Z,11.45
2023-02-08T11:47:35.994Z,9.94
2023-02-08T11:50:09.093Z,9.99
2023-02-08T11:52:39.562Z,9.38
2023-02-08T11:55:23.435Z,9.99
2023-02-08T11:58:19.617Z,8.47
2023-02-08T12:01:01.128Z,9.63
2023-02-08T12:03:35.358Z,10.37
2023-02-08T12:06:22.905Z,10.98
2023-02-08T12:08:57.290Z,10.45
2023-02-08T12:11:47.026Z,10.12
2023-02-08T12:14:49.087Z,9.96
2023-02-08T12:17:42.744Z,9.90
2023-02-08T12:20:18.431Z,9.59
2023-02-08T12:22:56.262Z,8.84
2023-02-08T12:25:41.599Z,8.68
2023-02-08T12:28:56.741Z,8.02
2023-02-08T12:31:41.745Z,7.40
2023-02-08T12:34:34.350Z,6.82
2023-02-08T12:37:22.464Z,6.34
2023-02-08T12:40:34.484Z,5.73
2023-02-08T12:43:27.915Z,5.66
2023-02-08T12:46:12.393Z,5.68
2023-02-08T12:48:59.486Z,5.45
2023-02-08T12:51:48.801Z,5.67
2023-02-08T12:54:23.400Z,5.39
2023-02-08T12:57:01.658Z,5.71
2023-02-08T12:59:44.052Z,5.79
2023-02-08T13:02:20.124Z,5.99
2023-02-08T13:04:50.234Z,5.81
2023-02-08T13:07:32.170Z,5.95
2023-02-08T13:10:08.697Z,6.17
2023-02-08T13:12:40.491Z,5.99
2023-02-08T13:15:30.113Z,6.04
2023-02-08T13:17:59.151Z,5.77
2023-02-08T13:20:48.078Z,6.07
2023-02-08T13:23:22.698Z,5.83
2023-02-08T13:26:02.623Z,5.84
2023-02-08T13:28:30.821Z,5.69
2023-02-08T13:31:05.838Z,5.55
2023-02-08T13:33:59.217Z,5.61
2023-02-08T13:36:31.894Z,4.98
2023-02-08T13:39:02.435Z,4.67
2023-02-08T13:41:33.770Z,4.80
2023-02-08T13:44:07.704Z,4.52
2023-02-08T13:46:53.469Z,4.43
2023-02-08T13:49:44.950Z,4.43
2023-02-08T13:52:46.961Z,4.32
2023-02-08T13:55:37.533Z,3.91
2023-02-08T13:58:14.861Z,4.27
2023-02-08T14:00:55.213Z,4.50
2023-02-08T14:03:27.467Z,4.89
2023-02-08T14:05:59.186Z,5.18
2023-02-08T14:08:39.703Z,5.21
2023-02-08T14:11:19.054Z,5.45
2023-02-08T14:14:21.102Z,5.05
2023-02-08T14:17:04.520Z,5.60
2023-02-08T14:19:37.474Z,5.69
2023-02-08T14:22:12.669Z,5.79
2023-02-08T14:24:43.998Z,5.51
2023-02-08T14:27:42.001Z,5.78
2023-02-08T14:30:16.456Z,5.70
2023-02-08T14:32:47.887Z,5.38
2023-02-08T14:35:16.102Z,5.26
2023-02-08T14:37:45.108Z,5.27
2023-02-08T14:40:24.805Z,5.12
2023-02-08T14:42:53.455Z,5.10
2023-02-08T14:45:39.570Z,5.40
2023-02-08T14:48:31.414Z,5.08
2023-02-08T14:51:09.209Z,5.18
2023-02-08T14:53:49.200Z,5.25
2023-02-08T14:56:26.947Z,5.45
2023-02-08T14:59:13.834Z,5.00
2023-02-08T15:01:56.599Z,4.73
2023-02-08T15:04:25.336Z,4.49
2023-02-08T15:07:20.341Z,4.82
2023-02-08T15:09:48.631Z,4.72
2023-02-08T15:12:26.398Z,4.60
2023-02-08T15:14:55.885Z,4.56
2023-02-08T15:17:40.845Z,4.60
2023-02-08T15:20:19.020Z,4.29
2023-02-08T15:22:47.212Z,4.35
2023-02-08T15:25:25.690Z,4.41
2023-02-08T15:27:56.866Z,4.10
2023-02-08T15:30:36.786Z,3.75
2023-02-08T15:33:14.780Z,3.87
2023-02-08T15:35:43.958Z,4.25
2023-02-08T15:38:18.582Z,4.16
2023-02-08T15:41:07.066Z,3.97
2023-02-08T15:43:42.681Z,3.25
2023-02-08T15:46:23.263Z,3.56
2023-02-08T15:48:53.744Z,3.72
2023-02-08T15:51:24.441Z,3.08
2023-02-08T15:53:54.351Z,3.30
2023-02-08T15:56:36.821Z,3.26
2023-02-08T15:59:08.599Z,3.16
2023-02-08T16:01:37.703Z,3.21
2023-02-08T16:04:08.169Z,3.36
2023-02-08T16:06:48.616Z,3.16
2023-02-08T16:09:20.031Z,3.55
2023-02-08T16:11:50.263Z,3.37
2023-02-08T16:14:24.218Z,2.81
2023-02-08T16:16:57.537Z,2.88
2023-02-08T16:19:30.770Z,3.13
2023-02-08T16:22:14.048Z,3.07
2023-02-08T16:24:42.550Z,2.92
2023-02-08T16:27:26.166Z,3.03
2023-02-08T16:29:54.541Z,3.14
2023-02-08T16:32:33.611Z,2.72
2023-02-08T16:35:12.423Z,2.85
2023-02-08T16:37:40.696Z,2.18
2023-02-08T16:40:27.865Z,2.24
2023-02-08T16:43:15.206Z,2.34
2023-02-08T16:45:43.681Z,2.70
2023-02-08T16:48:33.580Z,2.24
2023-02-08T16:51:03.075Z,2.28
2023-02-08T16:53:41.229Z,2.03
2023-02-08T16:56:12.896Z,2.11
2023-02-08T16:58:40.907Z,2.20
2023-02-08T17:01:13.160Z,2.42
2023-02-08T17:03:41.703Z,2.70
2023-02-08T17:06:26.864Z,2.06
2023-02-08T17:08:57.135Z,2.28
2023-02-08T17:11:27.687Z,2.57
2023-02-08T17:13:56.117Z,2.57
2023-02-08T17:16:26.478Z,2.20
2023-02-08T17:18:54.732Z,2.05
2023-02-08T17:21:22.996Z,2.44
2023-02-08T17:23:50.964Z,1.67
2023-02-08T17:26:27.649Z,0.69
2023-02-08T17:28:56.630Z,0.87
2023-02-08T17:31:26.243Z,1.40
2023-02-08T17:33:54.612Z,1.58
2023-02-08T17:36:22.694Z,1.44
2023-02-08T17:38:51.478Z,1.15
2023-02-08T17:41:21.161Z,1.48
2023-02-08T17:43:56.912Z,1.09
2023-02-08T17:46:30.627Z,1.20
2023-02-08T17:49:02.003Z,0.65
2023-02-08T17:51:31.562Z,0.82
2023-02-08T17:53:59.515Z,0.71
2023-02-08T17:56:28.766Z,0.85
2023-02-08T17:58:59.373Z,0.81
2023-02-08T18:01:30.414Z,0.79
2023-02-08T18:03:59.694Z,0.49
2023-02-08T18:06:28.904Z,0.78
2023-02-08T18:08:56.785Z,0.56
2023-02-08T18:11:25.092Z,0.22
2023-02-08T18:13:54.134Z,0.35
2023-02-08T18:16:24.675Z,0.44
2023-02-08T18:18:57.530Z,0.22
2023-02-08T18:21:26.135Z,0.38
2023-02-08T18:23:55.634Z,0.29
2023-02-08T18:26:24.791Z,0.16
2023-02-08T18:28:53.065Z,0.25
2023-02-08T18:31:21.492Z,-0.04
2023-02-08T18:33:50.197Z,-0.04
2023-02-08T18:36:18.914Z,0.27
2023-02-08T18:38:48.720Z,0.16
2023-02-08T18:41:22.422Z,0.53
2023-02-08T18:43:50.865Z,0.51
2023-02-08T18:46:21.342Z,0.85
2023-02-08T18:48:50.771Z,0.24
2023-02-08T18:51:20.350Z,0.44
2023-02-08T18:53:51.054Z,0.71
2023-02-08T18:56:24.318Z,0.31
2023-02-08T18:58:53.884Z,0.49
2023-02-08T19:01:23.821Z,0.64
2023-02-08T19:03:52.301Z,1.14
2023-02-08T19:06:27.389Z,0.65
2023-02-08T19:08:57.297Z,0.70
2023-02-08T19:11:28.605Z,0.45
2023-02-08T19:14:01.328Z,0.30
2023-02-08T19:16:33.456Z,1.00
2023-02-08T19:19:01.868Z,0.68
2023-02-08T19:21:30.923Z,0.78
2023-02-08T19:24:03.646Z,0.18
2023-02-08T19:26:39.750Z,0.51
2023-02-08T19:29:15.311Z,0.43
2023-02-08T19:31:44.740Z,0.26
2023-02-08T19:34:12.925Z,0.08
2023-02-08T19:36:46.817Z,0.35
2023-02-08T19:39:16.816Z,0.34
2023-02-08T19:41:45.688Z,-0.03
2023-02-08T19:44:16.102Z,-0.31
2023-02-08T19:46:49.669Z,-0.47
2023-02-08T19:49:18.493Z,-0.35
2023-02-08T19:51:47.646Z,-0.28
2023-02-08T19:54:18.218Z,-0.46
2023-02-08T19:56:47.269Z,-0.53
2023-02-08T19:59:27.337Z,-0.60
2023-02-08T20:01:56.886Z,-0.21
2023-02-08T20:04:25.824Z,-0.20
2023-02-08T20:06:54.059Z,-0.50
2023-02-08T20:09:22.922Z,-0.57
2023-02-08T20:12:00.115Z,-0.87
2023-02-08T20:14:31.293Z,-0.49
2023-02-08T20:17:01.118Z,-0.75
2023-02-08T20:19:31.817Z,-0.38
2023-02-08T20:22:00.142Z,-1.17
2023-02-08T20:24:28.682Z,-1.53
2023-02-08T20:26:56.484Z,-0.55
2023-02-08T20:29:26.570Z,-0.62
2023-02-08T20:31:58.266Z,-2.01
2023-02-08T20:34:27.324Z,-2.04
2023-02-08T20:37:06.718Z,-1.70
2023-02-08T20:39:36.605Z,-1.36
2023-02-08T20:42:04.974Z,-1.74
2023-02-08T20:44:32.846Z,-1.13
2023-02-08T20:47:01.589Z,-1.46
2023-02-08T20:49:32.373Z,-1.59
2023-02-08T20:52:00.692Z,-1.81
2023-02-08T20:54:29.006Z,-2.16
2023-02-08T20:56:57.131Z,-1.64
2023-02-08T20:59:25.074Z,-2.20
2023-02-08T21:01:53.360Z,-2.41
2023-02-08T21:04:23.675Z,-2.04
2023-02-08T21:06:52.330Z,-1.89
2023-02-08T21:09:21.312Z,-2.44
2023-02-08T21:11:50.121Z,-2.16
2023-02-08T21:14:21.064Z,-2.32
2023-02-08T21:16:52.005Z,-2.43
2023-02-08T21:19:20.929Z,-2.26
2023-02-08T21:21:58.180Z,-1.80
2023-02-08T21:24:27.157Z,-1.79
2023-02-08T21:26:56.892Z,-2.06
2023-02-08T21:29:25.297Z,-2.39
2023-02-08T21:31:54.771Z,-2.91
2023-02-08T21:34:23.351Z,-2.76
2023-02-08T21:36:51.253Z,-2.55
2023-02-08T21:39:19.736Z,-2.97
2023-02-08T21:41:48.617Z,-2.72
2023-02-08T21:44:16.623Z,-3.34
2023-02-08T21:46:44.543Z,-2.87
2023-02-08T21:49:31.360Z,-3.20
2023-02-08T21:52:17.844Z,-3.03
2023-02-08T21:54:46.949Z,-3.12
2023-02-08T21:57:27.059Z,-2.77
2023-02-08T21:59:58.430Z,-3.39
2023-02-08T22:02:29.180Z,-2.73
2023-02-08T22:05:22.148Z,-2.78
2023-02-08T22:07:54.029Z,-3.43
2023-02-08T22:10:24.585Z,-2.83
2023-02-08T22:12:55.435Z,-2.79
2023-02-08T22:15:26.975Z,-3.40
2023-02-08T22:17:56.268Z,-4.10
2023-02-08T22:20:24.868Z,-3.18
2023-02-08T22:22:55.107Z,-3.50
2023-02-08T22:25:24.133Z,-3.58
2023-02-08T22:27:52.544Z,-3.58
2023-02-08T22:30:20.490Z,-3.09
2023-02-08T22:32:49.409Z,-3.07
2023-02-08T22:35:18.960Z,-3.47
2023-02-08T22:37:46.959Z,-3.25
2023-02-08T22:40:14.843Z,-3.81
2023-02-08T22:42:43.296Z,-3.40
2023-02-08T22:45:11.591Z,-3.62
2023-02-08T22:47:39.583Z,-3.52
2023-02-08T22:50:08.558Z,-4.05
2023-02-08T22:52:36.658Z,-3.48
2023-02-08T22:55:05.287Z,-3.37
2023-02-08T22:57:34.963Z,-3.22
2023-02-08T23:00:05.619Z,-3.21
2023-02-08T23:02:33.985Z,-3.54
2023-02-08T23:05:01.860Z,-3.30
2023-02-08T23:07:29.746Z,-3.40
2023-02-08T23:09:58.047Z,-3.25
2023-02-08T23:12:25.947Z,-3.69
2023-02-08T23:14:53.839Z,-3.58
2023-02-08T23:17:22.175Z,-3.90
2023-02-08T23:19:52.782Z,-3.81
2023-02-08T23:22:20.669Z,-3.75
2023-02-08T23:24:49.064Z,-3.63
2023-02-08T23:27:16.955Z,-3.36
2023-02-08T23:29:44.885Z,-3.55
2023-02-08T23:32:13.158Z,-3.49
2023-02-08T23:34:41.013Z,-3.35
2023-02-08T23:37:08.856Z,-3.43
2023-02-08T23:39:37.131Z,-3.22
2023-02-08T23:42:05.898Z,-3.10
2023-02-08T23:44:33.771Z,-3.31
2023-02-08T23:47:02.150Z,-3.19
2023-02-08T23:49:30.066Z,-3.17
2023-02-08T23:51:57.861Z,-3.36
2023-02-08T23:54:26.304Z,-3.39
2023-02-08T23:56:54.395Z,-3.55
2023-02-08T23:59:22.175Z,-3.10
